sensor_id;sensor_type;location;lat;lon;timestamp;P1;durP1;ratioP1;P2;durP2;ratioP2
69213;SDS011;56325;47.030;18.518;2022-12-07T14:54:58;7.22;;;6.62;;
69213;SDS011;56325;47.030;18.518;2022-12-07T14:57:34;5.80;;;5.37;;
69213;SDS011;56325;47.030;18.518;2022-12-07T15:03:43;23.63;;;15.03;;
69213;SDS011;56325;47.030;18.518;2022-12-07T15:07:28;8.77;;;6.43;;
69213;SDS011;56325;47.030;18.518;2022-12-07T15:10:04;10.27;;;8.17;;
69213;SDS011;56325;47.030;18.518;2022-12-07T15:12:40;11.80;;;6.03;;
69213;SDS011;56325;47.030;18.518;2022-12-07T15:15:15;6.50;;;5.90;;
69213;SDS011;56325;47.030;18.518;2022-12-07T15:17:50;14.13;;;7.10;;
69213;SDS011;56325;47.030;18.518;2022-12-07T15:20:24;10.67;;;7.37;;
69213;SDS011;56325;47.030;18.518;2022-12-07T15:22:58;106.47;;;75.33;;
69213;SDS011;56325;47.030;18.518;2022-12-07T15:25:34;7.37;;;6.10;;
69213;SDS011;56325;47.030;18.518;2022-12-07T15:28:08;7.43;;;6.57;;
69213;SDS011;56325;47.030;18.518;2022-12-07T15:43:31;19.20;;;11.38;;
69213;SDS011;56325;47.030;18.518;2022-12-07T15:46:22;16.33;;;11.07;;
69213;SDS011;56325;47.030;18.518;2022-12-07T15:48:58;25.23;;;15.50;;
69213;SDS011;56325;47.030;18.518;2022-12-07T15:51:32;13.37;;;7.93;;
69213;SDS011;56325;47.030;18.518;2022-12-07T16:00:33;4.43;;;4.13;;
69213;SDS011;56325;47.030;18.518;2022-12-07T16:13:27;3.90;;;3.53;;
69213;SDS011;56325;47.030;18.518;2022-12-07T16:16:04;4.10;;;3.80;;
69213;SDS011;56325;47.030;18.518;2022-12-07T16:18:41;4.00;;;3.70;;
69213;SDS011;56325;47.030;18.518;2022-12-07T16:21:17;4.20;;;3.83;;
69213;SDS011;56325;47.030;18.518;2022-12-07T16:23:57;5.10;;;4.12;;
69213;SDS011;56325;47.030;18.518;2022-12-07T16:29:39;5.30;;;4.40;;
69213;SDS011;56325;47.030;18.518;2022-12-07T16:32:14;4.80;;;4.27;;
69213;SDS011;56325;47.030;18.518;2022-12-07T16:34:49;5.67;;;5.07;;
69213;SDS011;56325;47.030;18.518;2022-12-07T16:37:23;7.90;;;5.47;;
69213;SDS011;56325;47.030;18.518;2022-12-07T16:39:57;11.23;;;6.87;;
69213;SDS011;56325;47.030;18.518;2022-12-07T16:42:32;28.67;;;13.73;;
69213;SDS011;56325;47.030;18.518;2022-12-07T16:45:10;19.93;;;12.50;;
69213;SDS011;56325;47.030;18.518;2022-12-07T16:47:54;33.77;;;16.27;;
69213;SDS011;56325;47.030;18.518;2022-12-07T16:50:28;27.03;;;14.80;;
69213;SDS011;56325;47.030;18.518;2022-12-07T16:53:02;62.57;;;25.93;;
69213;SDS011;56325;47.030;18.518;2022-12-07T16:55:37;49.83;;;23.93;;
69213;SDS011;56325;47.030;18.518;2022-12-07T16:58:12;47.17;;;22.50;;
69213;SDS011;56325;47.030;18.518;2022-12-07T17:00:48;50.10;;;23.13;;
69213;SDS011;56325;47.030;18.518;2022-12-07T17:03:24;47.40;;;21.17;;
69213;SDS011;56325;47.030;18.518;2022-12-07T17:05:58;43.70;;;20.83;;
69213;SDS011;56325;47.030;18.518;2022-12-07T17:08:33;34.70;;;18.30;;
69213;SDS011;56325;47.030;18.518;2022-12-07T17:11:11;32.60;;;15.20;;
69213;SDS011;56325;47.030;18.518;2022-12-07T17:13:47;30.07;;;14.90;;
69213;SDS011;56325;47.030;18.518;2022-12-07T17:16:39;32.83;;;13.40;;
69213;SDS011;56325;47.030;18.518;2022-12-07T17:19:15;33.53;;;14.17;;
69213;SDS011;56325;47.030;18.518;2022-12-07T17:31:36;65.37;;;24.73;;
69213;SDS011;56325;47.030;18.518;2022-12-07T17:34:20;75.17;;;47.53;;
69213;SDS011;56325;47.030;18.518;2022-12-07T17:36:54;67.27;;;39.07;;
69213;SDS011;56325;47.030;18.518;2022-12-07T17:39:29;55.60;;;21.60;;
69213;SDS011;56325;47.030;18.518;2022-12-07T17:42:03;68.67;;;23.23;;
69213;SDS011;56325;47.030;18.518;2022-12-07T17:44:55;45.53;;;20.63;;
69213;SDS011;56325;47.030;18.518;2022-12-07T17:47:30;46.67;;;20.10;;
69213;SDS011;56325;47.030;18.518;2022-12-07T17:50:06;50.80;;;18.97;;
69213;SDS011;56325;47.030;18.518;2022-12-07T17:52:41;49.27;;;19.10;;
69213;SDS011;56325;47.030;18.518;2022-12-07T17:55:33;58.23;;;21.47;;
69213;SDS011;56325;47.030;18.518;2022-12-07T17:58:28;65.03;;;22.70;;
69213;SDS011;56325;47.030;18.518;2022-12-07T18:01:07;47.90;;;19.60;;
69213;SDS011;56325;47.030;18.518;2022-12-07T18:03:42;53.60;;;21.00;;
69213;SDS011;56325;47.030;18.518;2022-12-07T18:06:18;44.10;;;20.03;;
69213;SDS011;56325;47.030;18.518;2022-12-07T18:08:52;59.30;;;19.43;;
69213;SDS011;56325;47.030;18.518;2022-12-07T18:11:28;45.50;;;19.67;;
69213;SDS011;56325;47.030;18.518;2022-12-07T18:14:07;61.57;;;22.20;;
69213;SDS011;56325;47.030;18.518;2022-12-07T18:16:48;57.10;;;21.13;;
69213;SDS011;56325;47.030;18.518;2022-12-07T18:19:22;31.17;;;15.97;;
69213;SDS011;56325;47.030;18.518;2022-12-07T18:21:58;91.00;;;61.53;;
69213;SDS011;56325;47.030;18.518;2022-12-07T18:24:33;56.20;;;25.47;;
69213;SDS011;56325;47.030;18.518;2022-12-07T18:27:08;63.70;;;25.20;;
69213;SDS011;56325;47.030;18.518;2022-12-07T18:29:43;54.20;;;25.77;;
69213;SDS011;56325;47.030;18.518;2022-12-07T18:32:17;62.73;;;27.07;;
69213;SDS011;56325;47.030;18.518;2022-12-07T18:34:53;72.50;;;27.27;;
69213;SDS011;56325;47.030;18.518;2022-12-07T18:37:28;74.73;;;26.97;;
69213;SDS011;56325;47.030;18.518;2022-12-07T18:40:05;77.77;;;34.70;;
69213;SDS011;56325;47.030;18.518;2022-12-07T18:42:41;66.50;;;30.30;;
69213;SDS011;56325;47.030;18.518;2022-12-07T18:45:15;70.20;;;31.07;;
69213;SDS011;56325;47.030;18.518;2022-12-07T18:47:50;72.40;;;30.43;;
69213;SDS011;56325;47.030;18.518;2022-12-07T18:50:24;88.37;;;36.73;;
69213;SDS011;56325;47.030;18.518;2022-12-07T18:53:00;93.73;;;41.27;;
69213;SDS011;56325;47.030;18.518;2022-12-07T18:55:36;88.47;;;38.93;;
69213;SDS011;56325;47.030;18.518;2022-12-07T18:58:11;86.63;;;36.80;;
69213;SDS011;56325;47.030;18.518;2022-12-07T19:00:46;81.60;;;38.70;;
69213;SDS011;56325;47.030;18.518;2022-12-07T19:03:21;84.93;;;37.87;;
69213;SDS011;56325;47.030;18.518;2022-12-07T19:08:39;71.63;;;32.17;;
69213;SDS011;56325;47.030;18.518;2022-12-07T19:11:16;73.63;;;34.63;;
69213;SDS011;56325;47.030;18.518;2022-12-07T19:14:08;77.63;;;37.07;;
69213;SDS011;56325;47.030;18.518;2022-12-07T19:19:41;111.07;;;66.80;;
69213;SDS011;56325;47.030;18.518;2022-12-07T19:22:18;90.63;;;38.20;;
69213;SDS011;56325;47.030;18.518;2022-12-07T19:24:55;66.63;;;35.17;;
69213;SDS011;56325;47.030;18.518;2022-12-07T19:27:30;72.43;;;36.13;;
69213;SDS011;56325;47.030;18.518;2022-12-07T19:30:06;74.40;;;35.87;;
69213;SDS011;56325;47.030;18.518;2022-12-07T19:32:43;89.43;;;38.90;;
69213;SDS011;56325;47.030;18.518;2022-12-07T19:35:18;100.83;;;43.50;;
69213;SDS011;56325;47.030;18.518;2022-12-07T19:37:53;83.37;;;40.83;;
69213;SDS011;56325;47.030;18.518;2022-12-07T19:40:29;88.83;;;41.07;;
69213;SDS011;56325;47.030;18.518;2022-12-07T19:43:04;82.80;;;38.17;;
69213;SDS011;56325;47.030;18.518;2022-12-07T19:45:38;67.93;;;35.27;;
69213;SDS011;56325;47.030;18.518;2022-12-07T19:48:13;66.67;;;33.30;;
69213;SDS011;56325;47.030;18.518;2022-12-07T19:50:48;67.20;;;31.83;;
69213;SDS011;56325;47.030;18.518;2022-12-07T19:53:23;63.37;;;30.17;;
69213;SDS011;56325;47.030;18.518;2022-12-07T19:55:59;58.53;;;28.50;;
69213;SDS011;56325;47.030;18.518;2022-12-07T19:58:33;57.77;;;30.53;;
69213;SDS011;56325;47.030;18.518;2022-12-07T20:01:08;62.03;;;29.40;;
69213;SDS011;56325;47.030;18.518;2022-12-07T20:03:45;63.63;;;30.43;;
69213;SDS011;56325;47.030;18.518;2022-12-07T20:06:21;62.13;;;30.93;;
69213;SDS011;56325;47.030;18.518;2022-12-07T20:08:56;59.13;;;30.37;;
69213;SDS011;56325;47.030;18.518;2022-12-07T20:11:31;45.67;;;24.10;;
69213;SDS011;56325;47.030;18.518;2022-12-07T20:14:24;295.43;;;210.20;;
69213;SDS011;56325;47.030;18.518;2022-12-07T20:16:59;110.57;;;42.77;;
69213;SDS011;56325;47.030;18.518;2022-12-07T20:19:34;86.53;;;36.07;;
69213;SDS011;56325;47.030;18.518;2022-12-07T20:22:09;66.60;;;30.43;;
69213;SDS011;56325;47.030;18.518;2022-12-07T20:24:44;50.53;;;24.23;;
69213;SDS011;56325;47.030;18.518;2022-12-07T20:27:23;48.87;;;24.53;;
69213;SDS011;56325;47.030;18.518;2022-12-07T20:29:59;46.77;;;23.33;;
69213;SDS011;56325;47.030;18.518;2022-12-07T20:32:35;39.40;;;22.50;;
69213;SDS011;56325;47.030;18.518;2022-12-07T20:35:09;42.27;;;20.03;;
69213;SDS011;56325;47.030;18.518;2022-12-07T20:37:44;34.97;;;18.93;;
69213;SDS011;56325;47.030;18.518;2022-12-07T20:40:19;31.43;;;18.07;;
69213;SDS011;56325;47.030;18.518;2022-12-07T20:42:55;26.07;;;16.20;;
69213;SDS011;56325;47.030;18.518;2022-12-07T20:45:30;24.17;;;16.10;;
69213;SDS011;56325;47.030;18.518;2022-12-07T20:48:05;29.83;;;16.77;;
69213;SDS011;56325;47.030;18.518;2022-12-07T20:50:39;31.27;;;16.27;;
69213;SDS011;56325;47.030;18.518;2022-12-07T20:53:14;28.57;;;16.23;;
69213;SDS011;56325;47.030;18.518;2022-12-07T20:55:49;54.03;;;21.13;;
69213;SDS011;56325;47.030;18.518;2022-12-07T20:58:26;49.07;;;22.03;;
69213;SDS011;56325;47.030;18.518;2022-12-07T21:01:01;50.20;;;22.80;;
69213;SDS011;56325;47.030;18.518;2022-12-07T21:03:36;52.03;;;23.33;;
69213;SDS011;56325;47.030;18.518;2022-12-07T21:06:11;132.17;;;75.10;;
69213;SDS011;56325;47.030;18.518;2022-12-07T21:08:47;163.47;;;110.13;;
69213;SDS011;56325;47.030;18.518;2022-12-07T21:11:23;248.53;;;173.70;;
69213;SDS011;56325;47.030;18.518;2022-12-07T21:14:00;76.57;;;37.17;;
69213;SDS011;56325;47.030;18.518;2022-12-07T21:16:35;105.40;;;43.13;;
69213;SDS011;56325;47.030;18.518;2022-12-07T21:19:09;102.47;;;37.67;;
69213;SDS011;56325;47.030;18.518;2022-12-07T21:21:44;89.43;;;39.27;;
69213;SDS011;56325;47.030;18.518;2022-12-07T21:24:18;81.60;;;37.87;;
69213;SDS011;56325;47.030;18.518;2022-12-07T21:26:53;86.40;;;37.17;;
69213;SDS011;56325;47.030;18.518;2022-12-07T21:29:29;89.23;;;36.23;;
69213;SDS011;56325;47.030;18.518;2022-12-07T21:32:15;86.70;;;34.73;;
69213;SDS011;56325;47.030;18.518;2022-12-07T21:34:49;75.90;;;33.57;;
69213;SDS011;56325;47.030;18.518;2022-12-07T21:37:25;78.90;;;34.37;;
69213;SDS011;56325;47.030;18.518;2022-12-07T21:39:59;85.83;;;34.57;;
69213;SDS011;56325;47.030;18.518;2022-12-07T21:42:34;78.73;;;35.80;;
69213;SDS011;56325;47.030;18.518;2022-12-07T21:45:09;76.10;;;33.67;;
69213;SDS011;56325;47.030;18.518;2022-12-07T21:47:44;75.83;;;33.13;;
69213;SDS011;56325;47.030;18.518;2022-12-07T21:50:18;70.97;;;32.43;;
69213;SDS011;56325;47.030;18.518;2022-12-07T21:52:53;72.33;;;30.97;;
69213;SDS011;56325;47.030;18.518;2022-12-07T21:55:27;72.67;;;31.77;;
69213;SDS011;56325;47.030;18.518;2022-12-07T21:58:02;65.07;;;30.17;;
69213;SDS011;56325;47.030;18.518;2022-12-07T22:00:38;65.53;;;30.03;;
69213;SDS011;56325;47.030;18.518;2022-12-07T22:03:13;62.73;;;30.57;;
69213;SDS011;56325;47.030;18.518;2022-12-07T22:05:47;49.07;;;26.53;;
69213;SDS011;56325;47.030;18.518;2022-12-07T22:08:23;52.83;;;26.30;;
69213;SDS011;56325;47.030;18.518;2022-12-07T22:10:59;51.10;;;24.93;;
69213;SDS011;56325;47.030;18.518;2022-12-07T22:13:35;47.13;;;24.83;;
69213;SDS011;56325;47.030;18.518;2022-12-07T22:16:31;48.43;;;23.00;;
69213;SDS011;56325;47.030;18.518;2022-12-07T22:19:06;58.17;;;27.77;;
69213;SDS011;56325;47.030;18.518;2022-12-07T22:21:41;64.60;;;28.70;;
69213;SDS011;56325;47.030;18.518;2022-12-07T22:24:15;52.73;;;26.53;;
69213;SDS011;56325;47.030;18.518;2022-12-07T22:26:50;37.40;;;19.67;;
69213;SDS011;56325;47.030;18.518;2022-12-07T22:29:24;35.00;;;18.77;;
69213;SDS011;56325;47.030;18.518;2022-12-07T22:32:08;41.03;;;20.37;;
69213;SDS011;56325;47.030;18.518;2022-12-07T22:35:03;30.90;;;17.30;;
69213;SDS011;56325;47.030;18.518;2022-12-07T22:37:38;30.87;;;17.40;;
69213;SDS011;56325;47.030;18.518;2022-12-07T22:40:13;52.80;;;23.40;;
69213;SDS011;56325;47.030;18.518;2022-12-07T22:42:47;54.37;;;23.30;;
69213;SDS011;56325;47.030;18.518;2022-12-07T22:45:22;72.17;;;27.50;;
69213;SDS011;56325;47.030;18.518;2022-12-07T22:47:57;51.50;;;20.63;;
69213;SDS011;56325;47.030;18.518;2022-12-07T22:50:32;26.73;;;15.87;;
69213;SDS011;56325;47.030;18.518;2022-12-07T22:53:07;24.10;;;13.53;;
69213;SDS011;56325;47.030;18.518;2022-12-07T22:55:41;20.93;;;12.57;;
69213;SDS011;56325;47.030;18.518;2022-12-07T22:58:16;25.83;;;14.73;;
69213;SDS011;56325;47.030;18.518;2022-12-07T23:00:56;21.05;;;13.65;;
69213;SDS011;56325;47.030;18.518;2022-12-07T23:03:32;20.80;;;12.77;;
69213;SDS011;56325;47.030;18.518;2022-12-07T23:06:07;22.87;;;13.23;;
69213;SDS011;56325;47.030;18.518;2022-12-07T23:08:43;18.10;;;12.00;;
69213;SDS011;56325;47.030;18.518;2022-12-07T23:11:20;19.97;;;12.30;;
69213;SDS011;56325;47.030;18.518;2022-12-07T23:14:13;27.27;;;14.13;;
69213;SDS011;56325;47.030;18.518;2022-12-07T23:16:49;24.17;;;15.00;;
69213;SDS011;56325;47.030;18.518;2022-12-07T23:19:24;21.37;;;13.87;;
69213;SDS011;56325;47.030;18.518;2022-12-07T23:21:59;24.30;;;14.30;;
69213;SDS011;56325;47.030;18.518;2022-12-07T23:24:33;25.83;;;14.93;;
69213;SDS011;56325;47.030;18.518;2022-12-07T23:27:08;31.30;;;15.10;;
69213;SDS011;56325;47.030;18.518;2022-12-07T23:29:42;27.60;;;16.27;;
69213;SDS011;56325;47.030;18.518;2022-12-07T23:32:16;27.30;;;14.57;;
69213;SDS011;56325;47.030;18.518;2022-12-07T23:34:52;27.17;;;15.23;;
69213;SDS011;56325;47.030;18.518;2022-12-07T23:37:26;22.00;;;13.73;;
69213;SDS011;56325;47.030;18.518;2022-12-07T23:40:00;23.47;;;14.63;;
69213;SDS011;56325;47.030;18.518;2022-12-07T23:42:35;27.27;;;14.50;;
69213;SDS011;56325;47.030;18.518;2022-12-07T23:45:09;40.70;;;15.27;;
69213;SDS011;56325;47.030;18.518;2022-12-07T23:47:44;20.73;;;14.10;;
69213;SDS011;56325;47.030;18.518;2022-12-07T23:50:20;28.33;;;14.27;;
69213;SDS011;56325;47.030;18.518;2022-12-07T23:52:54;20.60;;;13.33;;
69213;SDS011;56325;47.030;18.518;2022-12-07T23:55:29;26.37;;;13.43;;
69213;SDS011;56325;47.030;18.518;2022-12-07T23:58:03;19.73;;;13.40;;
